createdAt,value
2019-05-21T00:00:34.947Z,100430.39
2019-05-21T00:01:37.538Z,100432.11
2019-05-21T00:02:39.749Z,100437.86
2019-05-21T00:03:42.364Z,100427.37
2019-05-21T00:04:44.757Z,100433.92
2019-05-21T00:05:47.353Z,100431.30
2019-05-21T00:06:49.548Z,100421.22
2019-05-21T00:07:52.131Z,100419.91
2019-05-21T00:08:54.364Z,100425.15
2019-05-21T00:09:56.936Z,100418.59
2019-05-21T00:10:59.170Z,100419.00
2019-05-21T00:12:01.798Z,100419.00
2019-05-21T00:13:04.129Z,100420.31
2019-05-21T00:14:06.726Z,100419.91
2019-05-21T00:15:08.923Z,100421.62
2019-05-21T00:16:11.511Z,100420.42
2019-05-21T00:17:13.712Z,100422.12
2019-05-21T00:18:16.303Z,100421.22
2019-05-21T00:19:18.547Z,100419.40
2019-05-21T00:20:21.126Z,100413.24
2019-05-21T00:21:23.345Z,100413.75
2019-05-21T00:22:25.946Z,100414.16
2019-05-21T00:23:28.161Z,100416.37
2019-05-21T00:24:30.742Z,100410.22
2019-05-21T00:25:32.945Z,100416.78
2019-05-21T00:26:35.513Z,100409.31
2019-05-21T00:27:37.749Z,100414.55
2019-05-21T00:28:40.787Z,100412.30
2019-05-21T00:29:42.987Z,100417.54
2019-05-21T00:30:45.555Z,100414.01
2019-05-21T00:31:47.777Z,100415.47
2019-05-21T00:32:50.366Z,100416.23
2019-05-21T00:33:52.601Z,100414.55
2019-05-21T00:34:55.181Z,100416.23
2019-05-21T00:35:57.407Z,100411.78
2019-05-21T00:37:01.987Z,100412.70
2019-05-21T00:38:04.192Z,100409.31
2019-05-21T00:39:06.824Z,100414.92
2019-05-21T00:40:09.019Z,100411.78
2019-05-21T00:41:11.596Z,100412.30
2019-05-21T00:42:13.810Z,100415.31
2019-05-21T00:43:16.375Z,100418.34
2019-05-21T00:44:18.672Z,100414.01
2019-05-21T00:45:21.209Z,100411.78
2019-05-21T00:46:23.421Z,100413.09
2019-05-21T00:47:26.006Z,100410.07
2019-05-21T00:48:28.207Z,100409.56
2019-05-21T00:49:30.828Z,100405.23
2019-05-21T00:50:33.034Z,100406.54
2019-05-21T00:51:35.607Z,100406.14
2019-05-21T00:52:37.814Z,100406.54
2019-05-21T00:53:40.391Z,100406.54
2019-05-21T00:54:42.651Z,100414.41
2019-05-21T00:55:45.232Z,100406.54
2019-05-21T00:56:47.431Z,100409.56
2019-05-21T00:57:49.998Z,100406.54
2019-05-21T00:58:52.257Z,100414.41
2019-05-21T00:59:54.856Z,100417.94
2019-05-21T01:00:57.065Z,100408.25
2019-05-21T01:01:59.654Z,100410.88
2019-05-21T01:03:01.879Z,100406.54
2019-05-21T01:04:04.474Z,100409.16
2019-05-21T01:05:06.711Z,100408.77
2019-05-21T01:06:09.292Z,100413.61
2019-05-21T01:07:11.497Z,100409.67
2019-05-21T01:08:14.071Z,100410.47
2019-05-21T01:09:16.262Z,100411.38
2019-05-21T01:10:18.879Z,100413.09
2019-05-21T01:11:21.111Z,100419.25
2019-05-21T01:12:23.702Z,100406.54
2019-05-21T01:13:25.898Z,100414.55
2019-05-21T01:14:28.480Z,100410.07
2019-05-21T01:15:30.734Z,100410.47
2019-05-21T01:16:33.333Z,100400.79
2019-05-21T01:17:35.560Z,100401.30
2019-05-21T01:18:38.142Z,100402.09
2019-05-21T01:19:40.338Z,100403.92
2019-05-21T01:20:42.940Z,100407.85
2019-05-21T01:21:45.153Z,100405.23
2019-05-21T01:22:47.718Z,100405.23
2019-05-21T01:23:49.926Z,100404.72
2019-05-21T01:24:52.514Z,100406.94
2019-05-21T01:25:54.746Z,100405.63
2019-05-21T01:26:57.334Z,100404.72
2019-05-21T01:27:59.534Z,100403.41
2019-05-21T01:29:02.117Z,100399.87
2019-05-21T01:30:04.331Z,100398.56
2019-05-21T01:31:06.896Z,100398.56
2019-05-21T01:32:09.112Z,100397.25
2019-05-21T01:33:11.694Z,100397.66
2019-05-21T01:34:13.894Z,100396.34
2019-05-21T01:35:17.551Z,100390.19
2019-05-21T01:36:19.972Z,100390.70
2019-05-21T01:37:22.566Z,100390.70
2019-05-21T01:38:24.768Z,100391.09
2019-05-21T01:39:27.342Z,100394.13
2019-05-21T01:40:29.557Z,100388.88
2019-05-21T01:41:32.149Z,100390.19
2019-05-21T01:42:34.358Z,100395.03
2019-05-21T01:43:36.932Z,100395.44
2019-05-21T01:44:39.133Z,100400.67
2019-05-21T01:45:41.707Z,100400.27
2019-05-21T01:46:43.940Z,100395.03
2019-05-21T01:47:46.508Z,100395.44
2019-05-21T01:48:48.717Z,100386.66
2019-05-21T01:49:51.287Z,100386.66
2019-05-21T01:50:53.518Z,100388.37
2019-05-21T01:51:56.091Z,100387.56
2019-05-21T01:52:58.312Z,100384.44
2019-05-21T01:54:00.885Z,100384.44
2019-05-21T01:55:03.086Z,100391.90
2019-05-21T01:56:05.677Z,100395.32
2019-05-21T01:57:07.879Z,100400.67
2019-05-21T01:58:10.472Z,100398.45
2019-05-21T01:59:12.696Z,100400.16
2019-05-21T02:00:15.275Z,100398.45
2019-05-21T02:01:17.478Z,100398.45
2019-05-21T02:02:20.052Z,100397.55
2019-05-21T02:03:22.269Z,100394.52
2019-05-21T02:04:24.848Z,100391.39
2019-05-21T02:05:33.263Z,100394.13
2019-05-21T02:06:31.306Z,100391.09
2019-05-21T02:07:33.514Z,100388.88
2019-05-21T02:08:36.096Z,100384.55
2019-05-21T02:09:57.866Z,100387.17
2019-05-21T02:11:00.462Z,100388.48
2019-05-21T02:12:02.695Z,100381.92
2019-05-21T02:13:05.287Z,100384.15
2019-05-21T02:14:07.487Z,100387.17
2019-05-21T02:15:10.079Z,100381.02
2019-05-21T02:16:12.311Z,100383.64
2019-05-21T02:17:14.959Z,100382.33
2019-05-21T02:18:17.161Z,100383.23
2019-05-21T02:19:19.757Z,100378.39
2019-05-21T02:20:21.951Z,100375.27
2019-05-21T02:21:24.536Z,100372.64
2019-05-21T02:22:26.729Z,100374.86
2019-05-21T02:23:29.299Z,100376.69
2019-05-21T02:24:31.513Z,100380.11
2019-05-21T02:25:34.111Z,100386.26
2019-05-21T02:26:36.348Z,100384.55
2019-05-21T02:27:38.947Z,100388.88
2019-05-21T02:28:41.155Z,100386.66
2019-05-21T02:29:43.741Z,100383.23
2019-05-21T02:30:45.973Z,100374.86
2019-05-21T02:31:48.571Z,100385.34
2019-05-21T02:32:50.981Z,100382.22
2019-05-21T02:33:53.573Z,100382.61
2019-05-21T02:34:55.765Z,100381.81
2019-05-21T02:35:58.337Z,100382.22
2019-05-21T02:37:00.553Z,100376.17
2019-05-21T02:38:03.129Z,100376.97
2019-05-21T02:39:05.826Z,100382.61
2019-05-21T02:40:08.415Z,100383.52
2019-05-21T02:41:10.610Z,100381.30
2019-05-21T02:42:13.204Z,100379.08
2019-05-21T02:43:15.404Z,100384.84
2019-05-21T02:44:18.002Z,100385.23
2019-05-21T02:45:20.199Z,100384.84
2019-05-21T02:46:22.792Z,100383.52
2019-05-21T02:47:25.190Z,100388.37
2019-05-21T02:48:28.842Z,100392.70
2019-05-21T02:49:31.037Z,100388.25
2019-05-21T02:50:33.627Z,100390.98
2019-05-21T02:51:35.852Z,100394.92
2019-05-21T02:52:38.411Z,100394.02
2019-05-21T02:53:40.647Z,100392.70
2019-05-21T02:54:43.232Z,100394.41
2019-05-21T02:55:45.435Z,100389.97
2019-05-21T02:56:48.020Z,100404.89
2019-05-21T02:57:50.234Z,100401.88
2019-05-21T02:58:52.836Z,100400.45
2019-05-21T02:59:56.646Z,100403.58
2019-05-21T03:01:20.656Z,100405.29
2019-05-21T03:02:30.213Z,100410.94
2019-05-21T03:03:33.095Z,100413.16
2019-05-21T03:04:35.286Z,100409.23
2019-05-21T03:05:37.879Z,100414.47
2019-05-21T03:06:40.100Z,100419.70
2019-05-21T03:07:42.693Z,100421.13
2019-05-21T03:08:44.902Z,100420.22
2019-05-21T03:09:47.478Z,100417.09
2019-05-21T03:10:49.676Z,100414.87
2019-05-21T03:11:52.275Z,100409.23
2019-05-21T03:12:54.487Z,100409.23
2019-05-21T03:13:57.061Z,100414.47
2019-05-21T03:14:59.270Z,100417.09
2019-05-21T03:16:01.854Z,100418.91
2019-05-21T03:17:04.075Z,100418.80
2019-05-21T03:18:06.679Z,100415.38
2019-05-21T03:19:08.991Z,100418.00
2019-05-21T03:20:11.582Z,100417.48
2019-05-21T03:21:13.778Z,100416.17
2019-05-21T03:22:16.533Z,100414.47
2019-05-21T03:23:18.729Z,100415.38
2019-05-21T03:24:21.310Z,100412.25
2019-05-21T03:25:24.713Z,100414.87
2019-05-21T03:26:27.313Z,100413.16
2019-05-21T03:27:29.539Z,100410.94
2019-05-21T03:28:32.113Z,100410.94
2019-05-21T03:29:34.303Z,100414.06
2019-05-21T03:30:36.898Z,100415.27
2019-05-21T03:31:39.123Z,100416.17
2019-05-21T03:32:41.702Z,100422.33
2019-05-21T03:33:43.920Z,100423.64
2019-05-21T03:34:46.481Z,100414.87
2019-05-21T03:35:48.705Z,100416.17
2019-05-21T03:36:51.446Z,100414.06
2019-05-21T03:37:53.681Z,100411.33
2019-05-21T03:38:56.265Z,100417.89
2019-05-21T03:39:58.468Z,100420.11
2019-05-21T03:41:01.049Z,100418.80
2019-05-21T03:42:03.253Z,100418.80
2019-05-21T03:43:05.828Z,100419.20
2019-05-21T03:44:08.034Z,100415.78
2019-05-21T03:45:10.588Z,100422.22
2019-05-21T03:46:12.796Z,100420.11
2019-05-21T03:47:15.470Z,100420.50
2019-05-21T03:48:17.804Z,100427.97
2019-05-21T03:49:20.378Z,100424.95
2019-05-21T03:50:22.593Z,100420.50
2019-05-21T03:51:25.181Z,100426.15
2019-05-21T03:52:27.376Z,100424.44
2019-05-21T03:53:29.965Z,100424.84
2019-05-21T03:54:32.200Z,100414.75
2019-05-21T03:55:34.747Z,100414.75
2019-05-21T03:56:36.947Z,100421.81
2019-05-21T03:57:39.545Z,100421.70
2019-05-21T03:58:41.741Z,100425.23
2019-05-21T03:59:44.339Z,100426.55
2019-05-21T04:00:46.558Z,100426.15
2019-05-21T04:01:49.109Z,100425.23
2019-05-21T04:02:51.324Z,100424.33
2019-05-21T04:03:53.920Z,100429.68
2019-05-21T04:04:56.126Z,100425.23
2019-05-21T04:05:58.727Z,100430.48
2019-05-21T04:07:00.925Z,100428.26
2019-05-21T04:08:03.539Z,100426.55
2019-05-21T04:09:05.748Z,100428.38
2019-05-21T04:10:08.338Z,100427.46
2019-05-21T04:11:10.536Z,100434.81
2019-05-21T04:12:13.105Z,100434.02
2019-05-21T04:13:15.319Z,100433.50
2019-05-21T04:14:31.837Z,100436.23
2019-05-21T04:15:34.066Z,100434.41
2019-05-21T04:16:53.469Z,100433.61
2019-05-21T04:18:01.292Z,100440.56
2019-05-21T04:19:10.581Z,100435.32
2019-05-21T04:20:13.280Z,100437.94
2019-05-21T04:21:15.857Z,100439.66
2019-05-21T04:22:18.094Z,100438.34
2019-05-21T04:23:20.670Z,100436.63
2019-05-21T04:24:22.885Z,100436.23
2019-05-21T04:25:25.498Z,100438.85
2019-05-21T04:26:27.701Z,100433.10
2019-05-21T04:27:30.257Z,100441.88
2019-05-21T04:28:32.466Z,100436.63
2019-05-21T04:29:35.056Z,100430.08
2019-05-21T04:30:37.261Z,100426.55
2019-05-21T04:31:39.853Z,100425.75
2019-05-21T04:32:42.046Z,100427.46
2019-05-21T04:33:44.633Z,100419.99
2019-05-21T04:34:46.838Z,100422.22
2019-05-21T04:35:49.426Z,100417.89
2019-05-21T04:37:08.884Z,100415.66
2019-05-21T04:37:56.161Z,100409.00
2019-05-21T04:38:58.373Z,100413.44
2019-05-21T04:40:00.959Z,100415.55
2019-05-21T04:41:03.157Z,100417.77
2019-05-21T04:42:05.737Z,100419.08
2019-05-21T04:43:07.934Z,100416.06
2019-05-21T04:44:10.561Z,100420.91
2019-05-21T04:45:15.563Z,100418.57
2019-05-21T04:46:18.142Z,100415.16
2019-05-21T04:47:20.336Z,100415.16
2019-05-21T04:48:22.924Z,100415.16
2019-05-21T04:49:25.200Z,100413.84
2019-05-21T04:50:27.762Z,100414.75
2019-05-21T04:51:29.971Z,100412.53
2019-05-21T04:52:32.580Z,100419.99
2019-05-21T04:53:34.763Z,100417.38
2019-05-21T04:54:37.364Z,100427.86
2019-05-21T04:55:39.570Z,100423.53
2019-05-21T04:56:42.155Z,100425.23
2019-05-21T04:57:44.361Z,100422.22
2019-05-21T04:58:46.955Z,100422.61
2019-05-21T04:59:49.188Z,100427.58
2019-05-21T05:00:51.771Z,100427.06
2019-05-21T05:01:53.988Z,100429.17
2019-05-21T05:02:56.580Z,100424.33
2019-05-21T05:03:59.688Z,100431.39
2019-05-21T05:05:02.335Z,100434.41
2019-05-21T05:06:04.548Z,100433.61
2019-05-21T05:07:07.112Z,100428.26
2019-05-21T05:08:09.324Z,100427.46
2019-05-21T05:09:11.908Z,100429.00
2019-05-21T05:10:14.131Z,100427.28
2019-05-21T05:11:16.687Z,100422.95
2019-05-21T05:12:18.911Z,100422.55
2019-05-21T05:13:21.463Z,100420.33
2019-05-21T05:14:23.751Z,100420.33
2019-05-21T05:15:26.333Z,100423.47
2019-05-21T05:16:28.544Z,100419.94
2019-05-21T05:17:31.134Z,100425.18
2019-05-21T05:18:33.326Z,100420.84
2019-05-21T05:19:36.006Z,100424.78
2019-05-21T05:20:38.279Z,100423.98
2019-05-21T05:21:40.868Z,100431.19
2019-05-21T05:22:43.085Z,100431.59
2019-05-21T05:23:45.660Z,100435.35
2019-05-21T05:24:47.875Z,100434.44
2019-05-21T05:25:50.484Z,100439.28
2019-05-21T05:26:52.679Z,100435.75
2019-05-21T05:27:55.269Z,100436.27
2019-05-21T05:28:57.488Z,100439.11
2019-05-21T05:30:00.066Z,100430.63
2019-05-21T05:31:02.272Z,100429.42
2019-05-21T05:32:04.866Z,100435.97
2019-05-21T05:33:07.058Z,100434.27
2019-05-21T05:34:09.632Z,100433.87
2019-05-21T05:35:11.915Z,100428.91
2019-05-21T05:36:14.504Z,100434.66
2019-05-21T05:37:16.726Z,100437.69
2019-05-21T05:38:19.302Z,100436.27
2019-05-21T05:39:21.506Z,100440.31
2019-05-21T05:40:24.091Z,100432.73
2019-05-21T05:41:26.321Z,100438.48
2019-05-21T05:42:28.925Z,100434.55
2019-05-21T05:43:31.145Z,100436.27
2019-05-21T05:44:33.723Z,100433.64
2019-05-21T05:45:35.958Z,100431.93
2019-05-21T05:46:38.589Z,100434.55
2019-05-21T05:47:40.788Z,100432.44
2019-05-21T05:48:54.868Z,100431.53
2019-05-21T05:49:58.778Z,100430.73
2019-05-21T05:51:02.999Z,100430.73
2019-05-21T05:52:05.262Z,100432.05
2019-05-21T05:53:07.912Z,100426.80
2019-05-21T05:54:10.126Z,100431.13
2019-05-21T05:55:12.718Z,100418.82
2019-05-21T05:56:14.915Z,100419.22
2019-05-21T05:57:17.546Z,100427.09
2019-05-21T05:58:19.775Z,100423.16
2019-05-21T05:59:22.357Z,100423.55
2019-05-21T06:00:24.563Z,100428.80
2019-05-21T06:01:27.931Z,100427.09
2019-05-21T06:02:30.211Z,100428.80
2019-05-21T06:03:32.784Z,100426.17
2019-05-21T06:04:35.004Z,100436.66
2019-05-21T06:05:37.586Z,100437.45
2019-05-21T06:06:39.858Z,100434.44
2019-05-21T06:07:42.455Z,100435.75
2019-05-21T06:08:44.656Z,100433.53
2019-05-21T06:09:47.274Z,100434.84
2019-05-21T06:10:49.482Z,100432.22
2019-05-21T06:11:52.058Z,100432.62
2019-05-21T06:12:54.287Z,100433.92
2019-05-21T06:13:56.868Z,100438.26
2019-05-21T06:14:59.169Z,100434.33
2019-05-21T06:16:01.774Z,100434.33
2019-05-21T06:17:04.070Z,100431.30
2019-05-21T06:18:06.651Z,100433.13
2019-05-21T06:19:08.895Z,100431.30
2019-05-21T06:20:11.478Z,100428.69
2019-05-21T06:21:13.672Z,100429.09
2019-05-21T06:22:16.264Z,100427.77
2019-05-21T06:23:18.476Z,100431.70
2019-05-21T06:24:21.074Z,100429.59
2019-05-21T06:25:23.299Z,100430.91
2019-05-21T06:26:25.874Z,100435.75
2019-05-21T06:27:28.130Z,100424.86
2019-05-21T06:28:30.736Z,100421.33
2019-05-21T06:29:32.924Z,100419.63
2019-05-21T06:30:35.503Z,100417.00
2019-05-21T06:31:37.729Z,100410.84
2019-05-21T06:32:40.324Z,100413.06
2019-05-21T06:33:42.594Z,100417.91
2019-05-21T06:34:48.192Z,100417.52
2019-05-21T06:35:49.021Z,100416.59
2019-05-21T06:36:51.596Z,100417.91
2019-05-21T06:37:53.811Z,100419.33
2019-05-21T06:38:56.396Z,100422.87
2019-05-21T06:39:58.646Z,100420.24
2019-05-21T06:41:01.246Z,100425.09
2019-05-21T06:42:03.456Z,100423.37
2019-05-21T06:43:06.086Z,100423.89
2019-05-21T06:44:08.276Z,100426.91
2019-05-21T06:45:10.931Z,100421.27
2019-05-21T06:46:13.143Z,100419.95
2019-05-21T06:47:15.708Z,100415.63
2019-05-21T06:48:17.944Z,100416.94
2019-05-21T06:49:20.519Z,100418.65
2019-05-21T06:50:22.745Z,100423.09
2019-05-21T06:51:25.354Z,100421.78
2019-05-21T06:52:27.618Z,100413.00
2019-05-21T06:53:30.206Z,100417.84
2019-05-21T06:54:32.423Z,100416.65
2019-05-21T06:55:35.024Z,100415.73
2019-05-21T06:56:37.232Z,100420.19
2019-05-21T06:57:39.859Z,100422.80
2019-05-21T06:58:42.021Z,100423.20
2019-05-21T06:59:44.638Z,100425.83
2019-05-21T07:00:46.851Z,100428.84
2019-05-21T07:01:49.427Z,100436.71
2019-05-21T07:02:51.645Z,100438.94
2019-05-21T07:03:54.229Z,100430.95
2019-05-21T07:04:56.455Z,100435.80
2019-05-21T07:05:59.601Z,100435.41
2019-05-21T07:07:02.289Z,100434.89
2019-05-21T07:08:05.038Z,100438.02
2019-05-21T07:09:07.427Z,100438.82
2019-05-21T07:10:10.173Z,100428.84
2019-05-21T07:11:12.618Z,100430.16
2019-05-21T07:12:15.261Z,100433.29
2019-05-21T07:13:17.692Z,100425.42
2019-05-21T07:14:20.399Z,100419.78
2019-05-21T07:15:24.371Z,100421.23
2019-05-21T07:16:27.144Z,100417.70
2019-05-21T07:17:29.362Z,100414.69
2019-05-21T07:18:31.995Z,100414.80
2019-05-21T07:19:34.199Z,100416.11
2019-05-21T07:20:36.789Z,100420.95
2019-05-21T07:21:39.007Z,100419.23
2019-05-21T07:22:41.710Z,100420.66
2019-05-21T07:23:43.930Z,100427.62
2019-05-21T07:24:46.527Z,100426.70
2019-05-21T07:25:48.731Z,100428.93
2019-05-21T07:26:51.311Z,100427.11
2019-05-21T07:27:53.549Z,100428.93
2019-05-21T07:28:56.852Z,100427.22
2019-05-21T07:29:59.227Z,100431.04
2019-05-21T07:31:01.882Z,100426.20
2019-05-21T07:32:04.084Z,100434.17
2019-05-21T07:33:07.050Z,100430.24
2019-05-21T07:34:09.753Z,100432.47
2019-05-21T07:35:12.335Z,100428.53
2019-05-21T07:36:14.551Z,100436.00
2019-05-21T07:37:17.150Z,100430.75
2019-05-21T07:38:19.353Z,100435.48
2019-05-21T07:39:21.976Z,100435.59
2019-05-21T07:40:24.319Z,100430.75
2019-05-21T07:41:26.903Z,100436.00
2019-05-21T07:42:29.093Z,100435.59
2019-05-21T07:43:31.693Z,100437.82
2019-05-21T07:44:33.929Z,100437.82
2019-05-21T07:45:36.512Z,100434.69
2019-05-21T07:46:39.720Z,100437.31
2019-05-21T07:47:42.645Z,100437.70
2019-05-21T07:48:44.855Z,100439.02
2019-05-21T07:49:47.452Z,100440.33
2019-05-21T07:50:49.663Z,100439.93
2019-05-21T07:51:52.243Z,100438.51
2019-05-21T07:52:54.441Z,100441.64
2019-05-21T07:53:57.042Z,100437.70
2019-05-21T07:54:59.243Z,100443.47
2019-05-21T07:56:01.818Z,100439.02
2019-05-21T07:57:04.037Z,100438.62
2019-05-21T07:58:06.626Z,100436.00
2019-05-21T07:59:08.821Z,100434.69
2019-05-21T08:00:11.409Z,100436.51
2019-05-21T08:01:13.954Z,100433.37
2019-05-21T08:02:16.512Z,100438.22
2019-05-21T08:03:18.755Z,100437.31
2019-05-21T08:04:21.467Z,100440.84
2019-05-21T08:05:23.672Z,100436.11
2019-05-21T08:06:26.283Z,100438.73
2019-05-21T08:07:28.479Z,100434.40
2019-05-21T08:08:31.192Z,100436.91
2019-05-21T08:09:33.379Z,100436.11
2019-05-21T08:10:36.017Z,100430.86
2019-05-21T08:11:39.184Z,100439.64
2019-05-21T08:12:41.731Z,100434.00
2019-05-21T08:13:44.111Z,100431.89
2019-05-21T08:14:46.950Z,100430.98
2019-05-21T08:15:49.157Z,100429.66
2019-05-21T08:16:51.774Z,100428.75
2019-05-21T08:17:53.991Z,100436.22
2019-05-21T08:18:56.581Z,100430.47
2019-05-21T08:20:08.509Z,100437.25
2019-05-21T08:21:03.035Z,100435.42
2019-05-21T08:22:05.261Z,100434.52
2019-05-21T08:23:08.341Z,100438.05
2019-05-21T08:24:10.529Z,100439.75
2019-05-21T08:25:14.758Z,100441.98
2019-05-21T08:26:17.025Z,100445.62
2019-05-21T08:27:19.731Z,100443.41
2019-05-21T08:28:21.918Z,100441.69
2019-05-21T08:29:24.497Z,100446.02
2019-05-21T08:30:26.857Z,100449.45
2019-05-21T08:31:29.590Z,100445.91
2019-05-21T08:32:31.845Z,100449.45
2019-05-21T08:33:34.427Z,100450.24
2019-05-21T08:34:36.631Z,100450.36
2019-05-21T08:35:39.195Z,100443.29
2019-05-21T08:36:41.437Z,100446.82
2019-05-21T08:37:44.017Z,100446.31
2019-05-21T08:38:46.269Z,100446.82
2019-05-21T08:39:48.838Z,100448.13
2019-05-21T08:40:51.080Z,100444.59
2019-05-21T08:41:53.676Z,100444.59
2019-05-21T08:42:55.977Z,100444.20
2019-05-21T08:43:59.716Z,100438.95
2019-05-21T08:45:02.825Z,100438.55
2019-05-21T08:46:06.076Z,100439.47
2019-05-21T08:47:08.384Z,100439.47
2019-05-21T08:48:10.968Z,100439.47
2019-05-21T08:49:13.225Z,100437.35
2019-05-21T08:50:15.752Z,100433.42
2019-05-21T08:51:17.970Z,100430.03
2019-05-21T08:52:20.579Z,100434.48
2019-05-21T08:53:22.784Z,100431.86
2019-05-21T08:54:42.859Z,100432.26
2019-05-21T08:55:45.245Z,100433.17
2019-05-21T08:56:47.909Z,100428.72
2019-05-21T08:58:05.446Z,100431.34
2019-05-21T08:58:54.328Z,100433.17
2019-05-21T08:59:56.518Z,100434.08
2019-05-21T09:00:59.126Z,100431.86
2019-05-21T09:02:01.366Z,100429.63
2019-05-21T09:03:03.944Z,100432.26
2019-05-21T09:04:06.159Z,100433.56
2019-05-21T09:05:08.742Z,100433.56
2019-05-21T09:06:10.986Z,100432.26
2019-05-21T09:07:13.606Z,100434.48
2019-05-21T09:08:15.825Z,100434.88
2019-05-21T09:09:18.406Z,100430.95
2019-05-21T09:10:20.609Z,100428.84
2019-05-21T09:11:23.219Z,100433.68
2019-05-21T09:12:25.440Z,100431.97
2019-05-21T09:13:28.028Z,100430.14
2019-05-21T09:14:30.264Z,100431.86
2019-05-21T09:15:32.838Z,100433.68
2019-05-21T09:16:35.064Z,100437.61
2019-05-21T09:17:37.655Z,100428.84
2019-05-21T09:18:39.860Z,100435.39
2019-05-21T09:19:42.441Z,100429.75
2019-05-21T09:20:44.647Z,100436.30
2019-05-21T09:21:47.232Z,100438.02
2019-05-21T09:22:49.861Z,100437.61
2019-05-21T09:23:52.516Z,100435.91
2019-05-21T09:24:54.734Z,100430.26
2019-05-21T09:25:57.314Z,100438.64
2019-05-21T09:26:59.562Z,100446.39
2019-05-21T09:28:02.153Z,100445.08
2019-05-21T09:29:04.527Z,100445.99
2019-05-21T09:30:07.092Z,100447.30
2019-05-21T09:31:09.297Z,100450.73
2019-05-21T09:32:11.883Z,100449.41
2019-05-21T09:33:14.146Z,100456.88
2019-05-21T09:34:16.726Z,100455.97
2019-05-21T09:35:19.049Z,100453.86
2019-05-21T09:36:25.064Z,100456.38
2019-05-21T09:37:25.508Z,100459.51
2019-05-21T09:38:28.117Z,100455.69
2019-05-21T09:39:30.328Z,100456.08
2019-05-21T09:40:32.940Z,100457.91
2019-05-21T09:41:35.384Z,100452.66
2019-05-21T09:42:38.080Z,100458.81
2019-05-21T09:43:40.491Z,100462.35
2019-05-21T09:44:43.145Z,100454.48
2019-05-21T09:45:45.539Z,100458.81
2019-05-21T09:46:48.122Z,100453.57
2019-05-21T09:47:50.335Z,100451.86
2019-05-21T09:48:56.033Z,100453.17
2019-05-21T09:49:57.049Z,100447.92
2019-05-21T09:50:59.604Z,100454.88
2019-05-21T09:52:01.804Z,100457.62
2019-05-21T09:53:04.378Z,100453.69
2019-05-21T09:54:06.613Z,100453.28
2019-05-21T09:55:09.192Z,100452.38
2019-05-21T09:56:29.235Z,100451.06
2019-05-21T09:57:37.066Z,100449.75
2019-05-21T09:58:43.736Z,100450.15
2019-05-21T10:00:04.917Z,100454.59
2019-05-21T10:01:38.345Z,100448.44
2019-05-21T10:02:40.605Z,100447.13
2019-05-21T10:03:44.472Z,100455.00
2019-05-21T10:04:46.791Z,100451.97
2019-05-21T10:05:49.421Z,100450.66
2019-05-21T10:06:51.630Z,100449.75
2019-05-21T10:07:54.218Z,100443.19
2019-05-21T10:08:56.450Z,100442.28
2019-05-21T10:09:59.031Z,100445.02
2019-05-21T10:11:01.256Z,100443.70
2019-05-21T10:12:04.563Z,100439.37
2019-05-21T10:13:06.786Z,100445.92
2019-05-21T10:14:09.356Z,100439.48
2019-05-21T10:15:11.552Z,100444.33
2019-05-21T10:16:14.128Z,100432.02
2019-05-21T10:17:16.378Z,100440.80
2019-05-21T10:18:18.947Z,100433.73
2019-05-21T10:19:21.150Z,100436.86
2019-05-21T10:20:23.719Z,100442.10
2019-05-21T10:21:26.004Z,100437.77
2019-05-21T10:22:28.648Z,100439.88
2019-05-21T10:23:30.892Z,100441.70
2019-05-21T10:24:33.427Z,100443.02
2019-05-21T10:25:35.656Z,100444.73
2019-05-21T10:26:38.232Z,100446.04
2019-05-21T10:27:40.462Z,100444.33
2019-05-21T10:28:43.125Z,100445.64
2019-05-21T10:29:45.328Z,100449.69
2019-05-21T10:30:47.914Z,100449.83
2019-05-21T10:31:50.227Z,100446.41
2019-05-21T10:32:52.814Z,100445.09
2019-05-21T10:33:55.030Z,100444.30
2019-05-21T10:34:57.618Z,100451.77
2019-05-21T10:35:59.828Z,100458.32
2019-05-21T10:37:02.582Z,100447.83
2019-05-21T10:38:04.825Z,100455.70
2019-05-21T10:39:07.402Z,100455.70
2019-05-21T10:40:09.624Z,100461.74
2019-05-21T10:41:12.201Z,100455.19
2019-05-21T10:42:14.525Z,100461.74
2019-05-21T10:43:17.091Z,100454.67
2019-05-21T10:44:19.309Z,100459.52
2019-05-21T10:45:21.891Z,100457.70
2019-05-21T10:46:24.113Z,100455.88
2019-05-21T10:47:26.700Z,100457.55
2019-05-21T10:48:28.906Z,100457.55
2019-05-21T10:49:31.506Z,100461.13
2019-05-21T10:50:33.721Z,100462.80
2019-05-21T10:51:36.310Z,100458.86
2019-05-21T10:52:38.565Z,100463.74
2019-05-21T10:53:41.141Z,100462.28
2019-05-21T10:54:43.360Z,100460.58
2019-05-21T10:55:45.968Z,100460.46
2019-05-21T10:56:48.682Z,100463.20
2019-05-21T10:57:51.295Z,100458.75
2019-05-21T10:58:53.507Z,100457.04
2019-05-21T10:59:56.207Z,100455.22
2019-05-21T11:01:05.337Z,100452.20
2019-05-21T11:02:35.608Z,100460.97
2019-05-21T11:03:55.456Z,100453.11
2019-05-21T11:05:04.497Z,100458.75
2019-05-21T11:06:09.963Z,100459.16
2019-05-21T11:07:12.604Z,100460.46
2019-05-21T11:08:24.365Z,100462.69
2019-05-21T11:09:20.422Z,100462.69
2019-05-21T11:10:23.014Z,100460.46
2019-05-21T11:11:25.221Z,100464.00
2019-05-21T11:12:27.789Z,100463.09
2019-05-21T11:13:30.006Z,100467.53
2019-05-21T11:14:32.694Z,100468.33
2019-05-21T11:15:35.005Z,100464.80
2019-05-21T11:16:37.600Z,100468.84
2019-05-21T11:17:53.380Z,100471.47
2019-05-21T11:18:44.063Z,100463.09
2019-05-21T11:19:46.364Z,100471.47
2019-05-21T11:20:49.052Z,100469.75
2019-05-21T11:21:51.291Z,100466.73
2019-05-21T11:22:53.893Z,100467.13
2019-05-21T11:23:56.330Z,100458.75
2019-05-21T11:24:59.110Z,100463.59
2019-05-21T11:26:01.338Z,100464.51
2019-05-21T11:27:04.807Z,100463.59
2019-05-21T11:28:07.248Z,100462.69
2019-05-21T11:29:09.845Z,100468.98
2019-05-21T11:30:12.182Z,100470.66
2019-05-21T11:31:14.786Z,100468.05
2019-05-21T11:32:16.996Z,100469.36
2019-05-21T11:33:19.579Z,100470.66
2019-05-21T11:34:21.811Z,100472.38
2019-05-21T11:35:24.409Z,100480.80
2019-05-21T11:36:26.611Z,100471.98
2019-05-21T11:37:29.293Z,100478.53
2019-05-21T11:38:39.648Z,100475.00
2019-05-21T11:39:35.841Z,100471.98
2019-05-21T11:40:38.032Z,100475.55
2019-05-21T11:41:40.610Z,100477.37
2019-05-21T11:42:42.857Z,100471.98
2019-05-21T11:43:45.599Z,100479.48
2019-05-21T11:44:47.796Z,100474.23
2019-05-21T11:45:50.408Z,100472.92
2019-05-21T11:46:52.616Z,100473.44
2019-05-21T11:47:55.233Z,100472.92
2019-05-21T11:48:57.454Z,100476.86
2019-05-21T11:50:00.052Z,100474.60
2019-05-21T11:51:02.246Z,100471.61
2019-05-21T11:52:04.838Z,100469.90
2019-05-21T11:53:07.111Z,100470.81
2019-05-21T11:54:09.761Z,100471.98
2019-05-21T11:55:11.960Z,100476.86
2019-05-21T11:56:14.562Z,100468.98
2019-05-21T11:57:16.800Z,100469.50